createdAt,value
2022-11-14T00:02:06.211Z,62.39
2022-11-14T00:04:38.334Z,62.10
2022-11-14T00:07:07.821Z,62.50
2022-11-14T00:09:38.672Z,62.84
2022-11-14T00:12:08.688Z,63.12
2022-11-14T00:14:38.291Z,63.61
2022-11-14T00:17:07.997Z,63.06
2022-11-14T00:19:40.033Z,62.72
2022-11-14T00:22:09.547Z,62.33
2022-11-14T00:24:39.041Z,61.97
2022-11-14T00:27:08.533Z,62.43
2022-11-14T00:29:38.653Z,61.98
2022-11-14T00:32:08.707Z,62.04
2022-11-14T00:34:40.805Z,62.76
2022-11-14T00:37:10.251Z,64.02
2022-11-14T00:39:39.705Z,64.76
2022-11-14T00:42:09.285Z,64.70
2022-11-14T00:44:38.773Z,64.79
2022-11-14T00:47:08.385Z,64.41
2022-11-14T00:49:40.484Z,64.49
2022-11-14T00:52:09.984Z,64.07
2022-11-14T00:54:39.430Z,63.74
2022-11-14T00:57:09.064Z,63.92
2022-11-14T00:59:38.525Z,64.56
2022-11-14T01:02:08.029Z,64.57
2022-11-14T01:04:40.125Z,64.66
2022-11-14T01:07:09.641Z,64.71
2022-11-14T01:09:39.274Z,64.71
2022-11-14T01:12:08.801Z,65.42
2022-11-14T01:14:54.785Z,65.93
2022-11-14T01:17:24.408Z,65.44
2022-11-14T01:19:56.491Z,65.40
2022-11-14T01:22:25.987Z,65.47
2022-11-14T01:24:58.362Z,64.77
2022-11-14T01:27:27.950Z,64.89
2022-11-14T01:29:57.490Z,65.10
2022-11-14T01:32:26.969Z,65.08
2022-11-14T01:34:59.065Z,65.41
2022-11-14T01:37:28.562Z,65.32
2022-11-14T01:39:58.093Z,65.49
2022-11-14T01:42:27.773Z,65.35
2022-11-14T01:44:57.272Z,65.97
2022-11-14T01:47:28.522Z,65.36
2022-11-14T01:50:01.616Z,64.72
2022-11-14T01:52:31.909Z,64.86
2022-11-14T01:55:03.054Z,65.26
2022-11-14T01:57:32.724Z,65.21
2022-11-14T02:00:04.395Z,66.51
2022-11-14T02:02:33.893Z,67.94
2022-11-14T02:05:08.256Z,68.10
2022-11-14T02:07:40.355Z,67.21
2022-11-14T02:10:11.881Z,67.61
2022-11-14T02:12:41.356Z,67.43
2022-11-14T02:15:11.921Z,67.69
2022-11-14T02:17:41.413Z,67.28
2022-11-14T02:20:24.299Z,66.89
2022-11-14T02:22:53.744Z,66.57
2022-11-14T02:25:23.273Z,66.48
2022-11-14T02:27:52.825Z,67.70
2022-11-14T02:30:23.841Z,67.83
2022-11-14T02:35:45.382Z,67.10
2022-11-14T02:38:14.883Z,66.31
2022-11-14T02:40:44.350Z,65.78
2022-11-14T02:43:13.805Z,66.01
2022-11-14T02:45:43.287Z,66.15
2022-11-14T02:48:12.775Z,66.40
2022-11-14T02:50:44.834Z,66.40
2022-11-14T02:53:14.309Z,66.73
2022-11-14T02:55:43.829Z,67.17
2022-11-14T02:58:13.304Z,67.52
2022-11-14T03:01:05.994Z,67.99
2022-11-14T03:03:32.299Z,68.64
2022-11-14T03:06:05.060Z,69.21
2022-11-14T03:08:34.577Z,69.45
2022-11-14T03:11:06.928Z,70.34
2022-11-14T03:13:36.497Z,70.58
2022-11-14T03:16:10.051Z,70.85
2022-11-14T03:18:39.536Z,70.65
2022-11-14T03:21:11.968Z,70.98
2022-11-14T03:23:41.475Z,71.52
2022-11-14T03:26:11.840Z,71.51
2022-11-14T03:28:41.815Z,71.91
2022-11-14T03:31:12.475Z,71.80
2022-11-14T03:33:41.969Z,71.83
2022-11-14T03:36:14.072Z,71.85
2022-11-14T03:38:43.666Z,71.60
2022-11-14T03:41:13.549Z,72.20
2022-11-14T03:43:42.991Z,72.55
2022-11-14T03:46:12.446Z,72.91
2022-11-14T03:48:42.213Z,73.47
2022-11-14T03:51:14.300Z,73.16
2022-11-14T03:53:44.328Z,73.97
2022-11-14T03:56:13.902Z,73.93
2022-11-14T03:58:46.610Z,74.36
2022-11-14T04:01:16.850Z,74.92
2022-11-14T04:03:46.416Z,74.61
2022-11-14T04:06:18.963Z,75.46
2022-11-14T04:08:51.942Z,75.75
2022-11-14T04:11:22.059Z,77.23
2022-11-14T04:13:51.542Z,76.93
2022-11-14T04:16:21.029Z,77.01
2022-11-14T04:18:50.529Z,75.78
2022-11-14T04:21:22.634Z,75.90
2022-11-14T04:23:52.382Z,76.01
2022-11-14T04:26:21.925Z,75.69
2022-11-14T04:28:51.433Z,75.67
2022-11-14T04:31:20.899Z,75.27
2022-11-14T04:33:50.409Z,74.70
2022-11-14T04:36:22.485Z,74.58
2022-11-14T04:38:51.971Z,74.60
2022-11-14T04:41:21.449Z,74.25
2022-11-14T04:43:51.218Z,74.38
2022-11-14T04:46:20.743Z,74.04
2022-11-14T04:48:50.248Z,74.12
2022-11-14T04:51:22.319Z,73.81
2022-11-14T04:53:51.844Z,73.72
2022-11-14T04:56:23.227Z,74.07
2022-11-14T04:58:52.753Z,74.13
2022-11-14T05:01:22.300Z,76.44
2022-11-14T05:03:51.857Z,76.30
2022-11-14T05:06:23.946Z,77.62
2022-11-14T05:08:53.417Z,79.65
2022-11-14T05:11:27.958Z,81.11
2022-11-14T05:13:58.623Z,81.41
2022-11-14T05:16:28.125Z,81.60
2022-11-14T05:18:57.632Z,80.28
2022-11-14T05:21:29.691Z,78.99
2022-11-14T05:23:59.173Z,77.61
2022-11-14T05:26:28.660Z,77.01
2022-11-14T05:28:58.162Z,76.88
2022-11-14T05:31:27.676Z,76.71
2022-11-14T05:33:57.161Z,76.93
2022-11-14T05:36:29.224Z,76.41
2022-11-14T05:38:58.708Z,76.40
2022-11-14T05:41:28.211Z,76.62
2022-11-14T05:43:57.725Z,76.61
2022-11-14T05:46:27.256Z,76.81
2022-11-14T05:48:57.002Z,75.70
2022-11-14T05:51:29.080Z,76.18
2022-11-14T05:53:58.567Z,75.76
2022-11-14T05:56:28.046Z,76.12
2022-11-14T05:58:57.551Z,76.19
2022-11-14T06:01:27.921Z,76.53
2022-11-14T06:03:57.423Z,76.55
2022-11-14T06:06:29.493Z,76.22
2022-11-14T06:08:58.965Z,76.39
2022-11-14T06:11:28.450Z,76.23
2022-11-14T06:13:57.930Z,75.91
2022-11-14T06:16:27.412Z,76.67
2022-11-14T06:18:57.252Z,76.63
2022-11-14T06:21:29.323Z,77.01
2022-11-14T06:23:58.838Z,77.34
2022-11-14T06:26:30.272Z,77.02
2022-11-14T06:29:00.261Z,76.92
2022-11-14T06:31:29.940Z,77.46
2022-11-14T06:33:59.553Z,78.35
2022-11-14T06:36:32.343Z,77.94
2022-11-14T06:39:01.890Z,78.23
2022-11-14T06:41:31.371Z,78.02
2022-11-14T06:44:00.868Z,77.78
2022-11-14T06:46:30.365Z,78.26
2022-11-14T06:48:59.855Z,78.75
2022-11-14T06:51:31.927Z,78.58
2022-11-14T06:54:01.461Z,78.09
2022-11-14T06:56:31.031Z,77.66
2022-11-14T06:59:00.532Z,77.21
2022-11-14T07:01:30.032Z,77.21
2022-11-14T07:04:00.703Z,77.05
2022-11-14T07:06:33.312Z,77.34
2022-11-14T07:09:02.780Z,77.65
2022-11-14T07:11:33.215Z,77.90
2022-11-14T07:14:03.142Z,77.57
2022-11-14T07:16:34.972Z,77.43
2022-11-14T07:19:05.033Z,77.57
2022-11-14T07:21:37.319Z,77.49
2022-11-14T07:24:07.337Z,77.67
2022-11-14T07:26:36.913Z,77.26
2022-11-14T07:29:06.379Z,78.01
2022-11-14T07:31:35.905Z,77.89
2022-11-14T07:34:06.103Z,78.11
2022-11-14T07:36:38.179Z,78.65
2022-11-14T07:39:07.640Z,80.48
2022-11-14T07:41:37.106Z,80.16
2022-11-14T07:44:07.102Z,79.79
2022-11-14T07:46:36.637Z,79.21
2022-11-14T07:49:06.184Z,78.92
2022-11-14T07:51:38.294Z,78.81
2022-11-14T07:54:07.887Z,78.41
2022-11-14T07:56:37.372Z,78.61
2022-11-14T07:59:06.930Z,79.54
2022-11-14T08:01:36.452Z,79.94
2022-11-14T08:04:06.025Z,80.86
2022-11-14T08:06:38.097Z,81.91
2022-11-14T08:09:07.567Z,82.09
2022-11-14T08:11:52.131Z,80.72
2022-11-14T08:14:21.637Z,79.09
2022-11-14T08:16:51.149Z,78.76
2022-11-14T08:19:20.921Z,79.73
2022-11-14T08:21:52.990Z,81.26
2022-11-14T08:24:22.522Z,82.93
2022-11-14T08:26:51.991Z,84.83
2022-11-14T08:29:21.507Z,84.85
2022-11-14T08:31:54.486Z,84.55
2022-11-14T08:34:29.197Z,83.24
2022-11-14T08:37:01.226Z,82.13
2022-11-14T08:39:30.748Z,81.41
2022-11-14T08:42:00.243Z,82.40
2022-11-14T08:44:29.713Z,83.74
2022-11-14T08:47:00.371Z,86.33
2022-11-14T08:49:29.931Z,87.91
2022-11-14T08:52:01.996Z,89.12
2022-11-14T08:54:31.896Z,89.96
2022-11-14T08:57:01.373Z,89.93
2022-11-14T08:59:30.856Z,91.17
2022-11-14T09:02:00.401Z,92.06
2022-11-14T09:04:29.892Z,92.01
2022-11-14T09:07:02.037Z,90.23
2022-11-14T09:09:31.536Z,88.22
2022-11-14T09:12:00.998Z,86.28
2022-11-14T09:14:30.473Z,87.04
2022-11-14T09:17:05.539Z,87.40
2022-11-14T09:19:35.504Z,87.44
2022-11-14T09:22:07.558Z,87.31
2022-11-14T09:24:37.076Z,87.02
2022-11-14T09:27:06.641Z,85.80
2022-11-14T09:29:36.214Z,85.24
2022-11-14T09:32:05.837Z,84.31
2022-11-14T09:34:37.212Z,84.29
2022-11-14T09:37:09.276Z,85.30
2022-11-14T09:39:40.725Z,86.98
2022-11-14T09:42:18.764Z,88.91
2022-11-14T09:44:57.698Z,89.90
2022-11-14T09:47:28.743Z,89.76
2022-11-14T09:49:59.355Z,91.44
2022-11-14T09:52:36.477Z,91.23
2022-11-14T09:55:11.845Z,91.39
2022-11-14T09:57:41.531Z,91.33
2022-11-14T10:00:18.881Z,91.60
2022-11-14T10:02:58.418Z,92.26
2022-11-14T10:05:39.077Z,92.28
2022-11-14T10:08:27.672Z,91.17
2022-11-14T10:10:57.723Z,89.61
2022-11-14T10:13:33.982Z,88.83
2022-11-14T10:16:06.050Z,86.88
2022-11-14T10:18:42.212Z,86.59
2022-11-14T10:21:19.391Z,85.15
2022-11-14T10:23:54.908Z,82.98
2022-11-14T10:26:30.144Z,83.25
2022-11-14T10:29:14.855Z,81.90
2022-11-14T10:31:48.262Z,81.31
2022-11-14T10:34:20.653Z,80.61
2022-11-14T10:36:59.044Z,80.18
2022-11-14T10:39:33.489Z,79.08
2022-11-14T10:42:07.847Z,78.36
2022-11-14T10:44:39.762Z,79.71
2022-11-14T10:47:10.133Z,80.70
2022-11-14T10:49:39.851Z,79.55
2022-11-14T10:52:10.357Z,80.26
2022-11-14T10:54:43.893Z,80.95
2022-11-14T10:57:20.331Z,83.10
2022-11-14T10:59:50.021Z,84.60
2022-11-14T11:02:19.895Z,84.60
2022-11-14T11:04:49.484Z,82.67
2022-11-14T11:07:38.826Z,81.71
2022-11-14T11:10:34.668Z,80.71
2022-11-14T11:13:06.940Z,79.35
2022-11-14T11:15:42.743Z,79.43
2022-11-14T11:18:29.745Z,78.72
2022-11-14T11:21:10.635Z,77.29
2022-11-14T11:23:53.237Z,75.34
2022-11-14T11:26:26.415Z,75.58
2022-11-14T11:29:10.513Z,76.46
2022-11-14T11:31:52.901Z,78.36
2022-11-14T11:34:25.540Z,79.36
2022-11-14T11:36:56.990Z,79.23
2022-11-14T11:39:28.184Z,78.83
2022-11-14T11:42:09.829Z,79.11
2022-11-14T11:44:42.784Z,78.32
2022-11-14T11:47:13.914Z,79.17
2022-11-14T11:49:47.410Z,78.35
2022-11-14T11:52:22.774Z,76.82
2022-11-14T11:54:56.320Z,77.32
2022-11-14T11:57:32.279Z,77.60
2022-11-14T12:00:06.590Z,77.10
2022-11-14T12:02:36.152Z,77.21
2022-11-14T12:05:05.944Z,76.66
2022-11-14T12:07:39.990Z,75.64
2022-11-14T12:10:14.552Z,74.08
2022-11-14T12:13:02.627Z,71.95
2022-11-14T12:15:34.789Z,71.15
2022-11-14T12:18:38.163Z,71.13
2022-11-14T12:21:19.693Z,70.60
2022-11-14T12:24:10.196Z,69.97
2022-11-14T12:26:47.982Z,72.09
2022-11-14T12:29:28.416Z,71.89
2022-11-14T12:31:59.895Z,71.64
2022-11-14T12:34:30.268Z,72.67
2022-11-14T12:36:59.783Z,72.95
2022-11-14T12:39:30.132Z,72.29
2022-11-14T12:42:05.462Z,71.69
2022-11-14T12:44:39.234Z,71.42
2022-11-14T12:47:19.721Z,71.46
2022-11-14T12:50:09.004Z,71.13
2022-11-14T12:52:52.952Z,71.18
2022-11-14T12:56:09.917Z,70.62
2022-11-14T12:58:51.348Z,71.20
2022-11-14T13:01:35.489Z,72.63
2022-11-14T13:04:12.214Z,74.00
2022-11-14T13:06:46.070Z,75.57
2022-11-14T13:09:36.548Z,75.38
2022-11-14T13:12:42.837Z,74.31
2022-11-14T13:15:37.369Z,72.66
2022-11-14T13:18:28.025Z,71.66
2022-11-14T13:21:16.728Z,70.94
2022-11-14T13:23:59.217Z,70.58
2022-11-14T13:26:44.434Z,70.54
2022-11-14T13:30:02.708Z,70.00
2022-11-14T13:32:58.987Z,70.78
2022-11-14T13:35:46.848Z,72.84
2022-11-14T13:38:41.661Z,73.10
2022-11-14T13:41:37.234Z,72.82
2022-11-14T13:44:53.308Z,73.49
2022-11-14T13:47:52.458Z,73.41
2022-11-14T13:50:22.347Z,73.54
2022-11-14T13:52:54.446Z,74.32
2022-11-14T13:55:24.521Z,73.87
2022-11-14T13:58:02.709Z,74.28
2022-11-14T14:00:32.355Z,75.47
2022-11-14T14:03:18.122Z,74.44
2022-11-14T14:06:06.393Z,73.36
2022-11-14T14:08:49.930Z,72.09
2022-11-14T14:11:49.181Z,72.00
2022-11-14T14:14:28.996Z,72.36
2022-11-14T14:16:59.898Z,71.92
2022-11-14T14:19:37.689Z,71.31
2022-11-14T14:22:09.709Z,70.98
2022-11-14T14:24:49.879Z,70.69
2022-11-14T14:27:22.191Z,70.52
2022-11-14T14:29:56.193Z,70.26
2022-11-14T14:32:26.375Z,70.39
2022-11-14T14:34:58.568Z,69.72
2022-11-14T14:37:28.866Z,69.63
2022-11-14T14:40:01.608Z,69.81
2022-11-14T14:42:35.139Z,69.50
2022-11-14T14:45:04.852Z,69.49
2022-11-14T14:47:37.569Z,69.72
2022-11-14T14:50:09.440Z,69.30
2022-11-14T14:52:39.714Z,69.16
2022-11-14T14:55:24.040Z,68.92
2022-11-14T14:57:53.514Z,69.46
2022-11-14T15:00:26.101Z,69.78
2022-11-14T15:02:56.134Z,69.52
2022-11-14T15:05:26.335Z,68.68
2022-11-14T15:07:57.665Z,69.02
2022-11-14T15:10:31.874Z,69.42
2022-11-14T15:13:01.400Z,69.38
2022-11-14T15:15:31.157Z,69.11
2022-11-14T15:18:09.798Z,68.76
2022-11-14T15:20:39.282Z,68.52
2022-11-14T15:23:09.517Z,69.03
2022-11-14T15:25:41.667Z,68.37
2022-11-14T15:28:18.765Z,68.38
2022-11-14T15:30:59.036Z,68.59
2022-11-14T15:33:32.093Z,68.33
2022-11-14T15:36:09.190Z,68.35
2022-11-14T15:38:45.895Z,68.02
2022-11-14T15:41:24.790Z,68.39
2022-11-14T15:43:55.323Z,68.67
2022-11-14T15:46:42.394Z,68.41
2022-11-14T15:49:13.240Z,68.61
2022-11-14T15:51:44.713Z,68.22
2022-11-14T15:54:30.934Z,68.22
2022-11-14T15:57:04.292Z,68.39
2022-11-14T15:59:35.110Z,68.51
2022-11-14T16:02:07.117Z,68.84
2022-11-14T16:04:37.157Z,69.01
2022-11-14T16:07:06.746Z,69.47
2022-11-14T16:09:36.223Z,68.62
2022-11-14T16:12:08.622Z,68.65
2022-11-14T16:14:38.161Z,68.30
2022-11-14T16:17:07.665Z,68.43
2022-11-14T16:19:37.149Z,68.62
2022-11-14T16:22:06.605Z,68.98
2022-11-14T16:24:36.117Z,68.79
2022-11-14T16:27:08.217Z,69.13
2022-11-14T16:29:37.717Z,68.83
2022-11-14T16:32:07.421Z,69.06
2022-11-14T16:34:36.875Z,68.84
2022-11-14T16:37:06.358Z,69.36
2022-11-14T16:39:35.856Z,69.89
2022-11-14T16:42:08.492Z,70.23
2022-11-14T16:44:42.724Z,69.75
2022-11-14T16:47:15.429Z,68.99
2022-11-14T16:49:44.907Z,69.34
2022-11-14T16:52:16.544Z,69.84
2022-11-14T16:54:46.377Z,70.51
2022-11-14T16:57:18.436Z,70.24
2022-11-14T16:59:48.017Z,69.86
2022-11-14T17:02:18.338Z,69.37
2022-11-14T17:04:47.926Z,69.28
2022-11-14T17:07:21.701Z,69.65
2022-11-14T17:09:52.407Z,69.94
2022-11-14T17:12:24.543Z,69.57
2022-11-14T17:14:54.581Z,69.17
2022-11-14T17:17:24.092Z,69.04
2022-11-14T17:19:53.545Z,68.53
2022-11-14T17:22:23.046Z,68.88
2022-11-14T17:24:52.495Z,68.64
2022-11-14T17:27:24.606Z,68.99
2022-11-14T17:29:54.370Z,68.94
2022-11-14T17:32:23.825Z,69.13
2022-11-14T17:34:53.334Z,69.17
2022-11-14T17:37:22.800Z,69.31
2022-11-14T17:39:52.275Z,68.88
2022-11-14T17:42:24.350Z,69.44
2022-11-14T17:44:53.817Z,69.52
2022-11-14T17:47:23.296Z,69.62
2022-11-14T17:49:52.844Z,70.10
2022-11-14T17:52:25.207Z,69.85
2022-11-14T17:54:54.684Z,70.12
2022-11-14T17:57:26.736Z,70.13
2022-11-14T17:59:56.275Z,69.75
2022-11-14T18:02:25.781Z,69.92
2022-11-14T18:04:55.274Z,70.05
2022-11-14T18:07:24.799Z,69.81
2022-11-14T18:09:54.368Z,69.50
2022-11-14T18:12:26.506Z,69.80
2022-11-14T18:14:55.977Z,69.23
2022-11-14T18:17:25.517Z,69.35
2022-11-14T18:19:56.199Z,69.01
2022-11-14T18:22:25.693Z,68.86
2022-11-14T18:24:55.225Z,69.19
2022-11-14T18:27:27.282Z,68.88
2022-11-14T18:30:07.942Z,69.15
2022-11-14T18:32:43.059Z,68.85
2022-11-14T18:35:12.744Z,69.36
2022-11-14T18:37:42.187Z,69.50
2022-11-14T18:40:16.691Z,69.49
2022-11-14T18:42:49.048Z,69.69
2022-11-14T18:45:18.670Z,69.66
2022-11-14T18:47:48.124Z,69.60
2022-11-14T18:50:17.663Z,69.23
2022-11-14T18:52:47.136Z,69.46
2022-11-14T18:55:16.821Z,69.37
2022-11-14T18:57:48.838Z,69.15
2022-11-14T19:00:19.027Z,69.51
2022-11-14T19:02:52.239Z,69.57
2022-11-14T19:05:21.958Z,69.73
2022-11-14T19:07:51.430Z,69.80
2022-11-14T19:10:21.112Z,69.84
2022-11-14T19:12:53.144Z,70.01
2022-11-14T19:15:22.638Z,69.56
2022-11-14T19:17:52.103Z,69.76
2022-11-14T19:20:21.735Z,69.99
2022-11-14T19:22:51.424Z,69.44
2022-11-14T19:25:20.983Z,69.30
2022-11-14T19:27:55.238Z,69.96
2022-11-14T19:30:24.786Z,69.77
2022-11-14T19:32:54.401Z,69.56
2022-11-14T19:35:23.914Z,69.79
2022-11-14T19:37:53.356Z,70.06
2022-11-14T19:40:22.796Z,69.89
2022-11-14T19:43:01.909Z,69.92
2022-11-14T19:45:31.422Z,69.65
2022-11-14T19:48:00.864Z,69.86
2022-11-14T19:50:30.304Z,69.87
2022-11-14T19:53:00.028Z,69.75
2022-11-14T19:55:29.505Z,69.85
2022-11-14T19:58:01.634Z,69.70
2022-11-14T20:00:31.931Z,69.09
2022-11-14T20:03:01.385Z,69.78
2022-11-14T20:05:30.831Z,69.48
2022-11-14T20:08:00.305Z,70.03
2022-11-14T20:10:29.747Z,69.78
2022-11-14T20:13:01.804Z,70.09
2022-11-14T20:15:32.284Z,69.93
2022-11-14T20:18:01.740Z,70.26
2022-11-14T20:20:31.167Z,71.13
2022-11-14T20:23:00.647Z,71.11
2022-11-14T20:25:30.105Z,71.28
2022-11-14T20:28:02.332Z,71.69
2022-11-14T20:30:31.806Z,71.81
2022-11-14T20:33:01.290Z,72.01
2022-11-14T20:35:30.802Z,71.95
2022-11-14T20:38:04.262Z,72.43
2022-11-14T20:40:34.251Z,72.12
2022-11-14T20:43:07.245Z,71.97
2022-11-14T20:45:36.723Z,71.77
2022-11-14T20:48:06.546Z,72.45
2022-11-14T20:50:36.031Z,72.77
2022-11-14T20:53:05.527Z,71.84
2022-11-14T20:55:34.976Z,72.69
2022-11-14T20:58:07.045Z,72.77
2022-11-14T21:00:36.540Z,72.72
2022-11-14T21:03:06.027Z,73.28
2022-11-14T21:05:35.453Z,72.42
2022-11-14T21:08:04.892Z,72.69
2022-11-14T21:10:50.748Z,72.77
2022-11-14T21:13:39.234Z,73.24
2022-11-14T21:16:10.152Z,72.98
2022-11-14T21:18:45.178Z,72.26
2022-11-14T21:21:18.535Z,72.24
2022-11-14T21:23:48.243Z,72.57
2022-11-14T21:26:18.502Z,72.33
2022-11-14T21:28:51.739Z,71.75
2022-11-14T21:31:22.581Z,71.57
2022-11-14T21:33:52.763Z,71.97
2022-11-14T21:36:43.810Z,71.63
2022-11-14T21:39:14.961Z,72.38
2022-11-14T21:41:45.295Z,72.73
2022-11-14T21:44:18.040Z,73.38
2022-11-14T21:46:49.582Z,73.92
2022-11-14T21:49:19.234Z,73.52
2022-11-14T21:51:48.937Z,73.38
2022-11-14T21:54:18.489Z,73.15
2022-11-14T21:56:47.932Z,73.35
2022-11-14T21:59:23.863Z,73.38
2022-11-14T22:02:06.088Z,73.30
2022-11-14T22:04:35.802Z,73.63
2022-11-14T22:07:07.595Z,74.04
2022-11-14T22:09:42.592Z,73.58
2022-11-14T22:12:14.534Z,75.24
2022-11-14T22:14:46.579Z,75.04
2022-11-14T22:17:16.020Z,75.78
2022-11-14T22:19:45.487Z,76.18
2022-11-14T22:22:14.960Z,75.46
2022-11-14T22:24:44.422Z,75.18
2022-11-14T22:27:13.895Z,75.29
2022-11-14T22:29:45.948Z,75.45
2022-11-14T22:32:15.428Z,75.73
2022-11-14T22:34:44.886Z,75.23
2022-11-14T22:37:14.345Z,76.87
2022-11-14T22:39:43.804Z,78.92
2022-11-14T22:42:13.436Z,78.96
2022-11-14T22:44:42.933Z,77.76
2022-11-14T22:47:15.002Z,76.15
2022-11-14T22:49:44.442Z,76.28
2022-11-14T22:52:13.871Z,75.85
2022-11-14T22:54:43.339Z,75.50
2022-11-14T22:57:12.816Z,75.17
2022-11-14T22:59:42.273Z,74.68
2022-11-14T23:02:11.734Z,75.25
2022-11-14T23:04:43.807Z,74.87
2022-11-14T23:07:13.354Z,75.09
2022-11-14T23:09:43.710Z,75.56
2022-11-14T23:12:13.437Z,75.52
2022-11-14T23:14:42.895Z,75.01
2022-11-14T23:17:12.402Z,75.50
2022-11-14T23:19:44.448Z,75.97
2022-11-14T23:22:13.929Z,76.25
2022-11-14T23:24:43.393Z,76.02
2022-11-14T23:27:12.854Z,75.85
2022-11-14T23:29:42.302Z,75.18
2022-11-14T23:32:11.754Z,74.46
2022-11-14T23:34:43.805Z,74.49
2022-11-14T23:37:13.284Z,74.75
2022-11-14T23:39:42.785Z,75.07
2022-11-14T23:42:12.318Z,75.17
2022-11-14T23:44:41.912Z,75.13
2022-11-14T23:47:11.364Z,74.61
2022-11-14T23:49:40.842Z,74.83
2022-11-14T23:52:12.845Z,74.66
2022-11-14T23:54:42.328Z,74.98
2022-11-14T23:57:11.869Z,75.17
2022-11-14T23:59:41.322Z,75.62
